createdAt,value
2019-05-11T00:00:58.177Z,34.23
2019-05-11T00:04:02.730Z,35.50
2019-05-11T00:07:07.150Z,35.23
2019-05-11T00:10:11.630Z,35.23
2019-05-11T00:13:16.028Z,35.73
2019-05-11T00:16:20.397Z,35.00
2019-05-11T00:19:24.922Z,35.80
2019-05-11T00:22:29.315Z,34.33
2019-05-11T00:25:33.696Z,37.10
2019-05-11T00:28:38.078Z,36.83
2019-05-11T00:31:42.466Z,36.37
2019-05-11T00:34:46.818Z,36.53
2019-05-11T00:37:51.296Z,36.67
2019-05-11T00:40:55.721Z,36.63
2019-05-11T00:44:00.127Z,35.50
2019-05-11T00:47:04.488Z,36.83
2019-05-11T00:50:09.937Z,35.03
2019-05-11T00:53:14.218Z,33.87
2019-05-11T00:56:18.547Z,36.37
2019-05-11T00:59:22.925Z,36.20
2019-05-11T01:02:27.325Z,35.70
2019-05-11T01:05:31.651Z,35.33
2019-05-11T01:08:35.950Z,36.77
2019-05-11T01:11:40.212Z,36.07
2019-05-11T01:14:44.521Z,36.00
2019-05-11T01:17:48.804Z,36.80
2019-05-11T01:20:53.097Z,35.20
2019-05-11T01:23:57.387Z,36.13
2019-05-11T01:27:01.707Z,36.30
2019-05-11T01:30:06.392Z,34.97
2019-05-11T01:33:10.718Z,35.30
2019-05-11T01:36:15.087Z,34.13
2019-05-11T01:39:19.408Z,35.33
2019-05-11T01:42:23.754Z,33.63
2019-05-11T01:45:28.040Z,33.70
2019-05-11T01:48:32.394Z,35.07
2019-05-11T01:51:36.624Z,34.10
2019-05-11T01:54:40.910Z,33.40
2019-05-11T01:57:45.309Z,33.20
2019-05-11T02:00:49.669Z,33.47
2019-05-11T02:03:54.007Z,33.63
2019-05-11T02:06:58.338Z,31.77
2019-05-11T02:10:02.624Z,32.17
2019-05-11T02:13:06.927Z,31.17
2019-05-11T02:16:11.332Z,33.23
2019-05-11T02:19:15.672Z,30.13
2019-05-11T02:22:20.148Z,32.53
2019-05-11T02:25:24.418Z,32.33
2019-05-11T02:28:28.676Z,32.17
2019-05-11T02:31:32.958Z,31.10
2019-05-11T02:34:37.343Z,32.00
2019-05-11T02:37:41.792Z,31.53
2019-05-11T02:40:46.083Z,32.17
2019-05-11T02:43:50.271Z,32.27
2019-05-11T02:46:54.787Z,32.27
2019-05-11T02:49:59.103Z,31.73
2019-05-11T02:53:04.605Z,31.03
2019-05-11T02:56:08.949Z,30.93
2019-05-11T02:59:13.206Z,30.77
2019-05-11T03:02:17.565Z,30.50
2019-05-11T03:05:22.000Z,31.27
2019-05-11T03:08:26.471Z,31.97
2019-05-11T03:11:30.840Z,31.37
2019-05-11T03:14:35.282Z,30.50
2019-05-11T03:17:39.645Z,29.17
2019-05-11T03:20:43.953Z,31.20
2019-05-11T03:23:48.346Z,29.97
2019-05-11T03:26:52.595Z,29.97
2019-05-11T03:30:00.837Z,31.10
2019-05-11T03:33:02.948Z,29.97
2019-05-11T03:36:07.252Z,30.70
2019-05-11T03:39:11.584Z,30.83
2019-05-11T03:42:15.973Z,30.73
2019-05-11T03:45:20.352Z,30.43
2019-05-11T03:48:24.643Z,30.63
2019-05-11T03:51:29.061Z,30.53
2019-05-11T03:54:33.994Z,30.53
2019-05-11T03:57:38.435Z,29.33
2019-05-11T04:00:42.781Z,30.13
2019-05-11T04:03:47.181Z,29.20
2019-05-11T04:06:51.482Z,29.63
2019-05-11T04:09:55.845Z,28.07
2019-05-11T04:13:00.259Z,27.97
2019-05-11T04:16:04.532Z,28.60
2019-05-11T04:19:08.757Z,28.63
2019-05-11T04:22:13.008Z,28.83
2019-05-11T04:25:17.757Z,28.27
2019-05-11T04:28:22.117Z,29.13
2019-05-11T04:31:26.546Z,27.57
2019-05-11T04:34:30.812Z,27.47
2019-05-11T04:37:35.804Z,28.40
2019-05-11T04:40:40.410Z,28.40
2019-05-11T04:43:44.925Z,26.87
2019-05-11T04:46:49.352Z,27.57
2019-05-11T04:49:53.779Z,26.27
2019-05-11T04:52:58.315Z,26.33
2019-05-11T04:56:02.876Z,25.83
2019-05-11T04:59:07.183Z,25.83
2019-05-11T05:02:11.589Z,26.30
2019-05-11T05:05:15.967Z,25.03
2019-05-11T05:08:21.196Z,24.40
2019-05-11T05:11:30.582Z,23.33
2019-05-11T05:14:32.776Z,23.83
2019-05-11T05:17:38.697Z,22.47
2019-05-11T05:20:44.018Z,24.07
2019-05-11T05:23:48.516Z,23.50
2019-05-11T05:26:53.466Z,24.73
2019-05-11T05:31:04.095Z,22.23
2019-05-11T05:34:08.114Z,24.03
2019-05-11T05:37:12.996Z,24.17
2019-05-11T05:40:17.039Z,23.33
2019-05-11T05:43:28.140Z,19.43
2019-05-11T05:46:27.950Z,20.27
2019-05-11T05:49:32.037Z,19.07
2019-05-11T05:52:36.600Z,17.50
2019-05-11T05:55:40.539Z,14.37
2019-05-11T05:58:44.540Z,14.30
2019-05-11T06:01:48.528Z,14.20
2019-05-11T06:04:52.521Z,13.97
2019-05-11T06:07:56.604Z,14.60
2019-05-11T06:11:00.750Z,13.37
2019-05-11T06:14:04.894Z,13.20
2019-05-11T06:17:09.216Z,13.60
2019-05-11T06:20:13.695Z,13.87
2019-05-11T06:23:17.658Z,14.33
2019-05-11T06:26:30.580Z,13.40
2019-05-11T06:29:34.818Z,12.97
2019-05-11T06:32:40.245Z,13.40
2019-05-11T06:35:44.179Z,12.90
2019-05-11T06:38:48.467Z,12.40
2019-05-11T06:41:52.425Z,13.80
2019-05-11T06:44:56.458Z,13.93
2019-05-11T06:48:00.675Z,13.03
2019-05-11T06:51:05.863Z,11.63
2019-05-11T06:54:10.360Z,12.37
2019-05-11T06:57:14.941Z,10.87
2019-05-11T07:00:19.649Z,10.20
2019-05-11T07:03:23.945Z,8.43
2019-05-11T07:06:30.543Z,8.30
2019-05-11T07:09:34.025Z,8.20
2019-05-11T07:12:38.322Z,7.30
2019-05-11T07:15:43.310Z,7.50
2019-05-11T07:18:49.511Z,7.50
2019-05-11T07:21:54.924Z,6.83
2019-05-11T07:24:59.714Z,7.00
2019-05-11T07:28:04.138Z,7.70
2019-05-11T07:31:09.135Z,6.73
2019-05-11T07:34:14.316Z,6.90
2019-05-11T07:37:20.041Z,6.17
2019-05-11T07:40:27.811Z,5.90
2019-05-11T07:43:33.520Z,5.30
2019-05-11T07:46:38.492Z,4.70
2019-05-11T07:49:43.716Z,4.60
2019-05-11T07:52:48.461Z,4.37
2019-05-11T07:55:53.148Z,4.03
2019-05-11T07:58:58.904Z,3.70
2019-05-11T08:02:03.657Z,3.60
2019-05-11T08:05:18.276Z,3.87
2019-05-11T08:08:25.107Z,2.90
2019-05-11T08:11:31.402Z,3.40
2019-05-11T08:14:34.611Z,3.23
2019-05-11T08:17:38.766Z,3.37
2019-05-11T08:20:42.987Z,2.57
2019-05-11T08:23:48.393Z,3.20
2019-05-11T08:26:55.369Z,3.30
2019-05-11T08:29:59.573Z,2.87
2019-05-11T08:33:03.845Z,2.70
2019-05-11T08:36:13.131Z,3.30
2019-05-11T08:39:18.324Z,3.00
2019-05-11T08:42:22.828Z,2.93
2019-05-11T08:45:28.094Z,3.10
2019-05-11T08:48:32.997Z,3.00
2019-05-11T08:51:38.847Z,2.60
2019-05-11T08:54:43.538Z,2.80
2019-05-11T08:57:48.122Z,2.67
2019-05-11T09:00:52.820Z,2.30
2019-05-11T09:03:58.315Z,2.70
2019-05-11T09:07:02.935Z,3.20
2019-05-11T09:10:08.171Z,2.83
2019-05-11T09:13:13.371Z,2.60
2019-05-11T09:16:19.196Z,2.43
2019-05-11T09:19:23.747Z,3.27
2019-05-11T09:22:28.591Z,2.90
2019-05-11T09:25:33.095Z,2.93
2019-05-11T09:28:38.512Z,2.70
2019-05-11T09:31:43.066Z,2.60
2019-05-11T09:34:48.537Z,3.43
2019-05-11T09:37:53.207Z,2.97
2019-05-11T09:40:58.562Z,2.40
2019-05-11T09:44:03.928Z,2.40
2019-05-11T09:47:08.855Z,3.27
2019-05-11T09:50:14.242Z,2.20
2019-05-11T09:53:19.099Z,2.27
2019-05-11T09:56:23.617Z,2.63
2019-05-11T09:59:28.439Z,2.30
2019-05-11T10:02:32.991Z,2.33
2019-05-11T10:05:38.389Z,2.40
2019-05-11T10:08:42.967Z,2.30
2019-05-11T10:11:48.095Z,2.40
2019-05-11T10:14:52.867Z,1.80
2019-05-11T10:17:58.899Z,1.80
2019-05-11T10:21:03.866Z,2.00
2019-05-11T10:24:08.669Z,2.10
2019-05-11T10:27:13.287Z,1.80
2019-05-11T10:30:18.870Z,1.87
2019-05-11T10:33:25.460Z,2.30
2019-05-11T10:36:29.888Z,2.00
2019-05-11T10:39:34.333Z,1.40
2019-05-11T10:42:38.875Z,1.73
2019-05-11T10:45:43.505Z,1.67
2019-05-11T10:48:48.502Z,1.00
2019-05-11T10:51:53.186Z,1.00
2019-05-11T10:54:58.604Z,1.60
2019-05-11T10:58:03.302Z,1.30
2019-05-11T11:01:08.847Z,1.20
2019-05-11T11:04:13.625Z,1.30
2019-05-11T11:07:19.440Z,1.43
2019-05-11T11:10:24.155Z,1.70
2019-05-11T11:13:28.588Z,1.53
2019-05-11T11:16:39.310Z,1.53
2019-05-11T11:19:39.214Z,1.33
2019-05-11T11:22:44.366Z,1.40
2019-05-11T11:25:49.303Z,1.50
2019-05-11T11:28:53.777Z,1.20
2019-05-11T11:31:59.137Z,1.20
2019-05-11T11:35:03.640Z,0.80
2019-05-11T11:38:08.822Z,1.33
2019-05-11T11:41:13.467Z,1.00
2019-05-11T11:44:18.602Z,1.20
2019-05-11T11:47:24.437Z,1.10
2019-05-11T11:50:28.894Z,0.60
2019-05-11T11:53:33.284Z,1.30
2019-05-11T11:56:38.111Z,0.80
2019-05-11T11:59:42.614Z,2.20
2019-05-11T12:02:48.683Z,3.97
2019-05-11T12:05:54.467Z,1.30
2019-05-11T12:09:00.940Z,1.17
2019-05-11T12:12:05.404Z,0.90
2019-05-11T12:15:10.126Z,1.00
2019-05-11T12:18:14.823Z,1.00
2019-05-11T12:21:19.456Z,1.00
2019-05-11T12:24:23.969Z,0.90
2019-05-11T12:27:28.856Z,1.00
2019-05-11T12:30:33.345Z,0.90
2019-05-11T12:33:38.701Z,0.63
2019-05-11T12:36:44.249Z,0.90
2019-05-11T12:39:48.789Z,0.80
2019-05-11T12:42:53.355Z,0.87
2019-05-11T12:45:58.819Z,1.10
2019-05-11T12:49:03.442Z,1.13
2019-05-11T12:52:08.331Z,0.80
2019-05-11T12:55:13.175Z,0.80
2019-05-11T12:58:18.915Z,0.60
2019-05-11T13:01:23.269Z,0.60
2019-05-11T13:04:28.200Z,0.60
2019-05-11T13:07:32.944Z,0.80
2019-05-11T13:10:37.694Z,1.10
2019-05-11T13:13:43.212Z,0.83
2019-05-11T13:16:48.378Z,0.93
2019-05-11T13:19:53.011Z,0.73
2019-05-11T13:22:58.782Z,0.73
2019-05-11T13:26:03.394Z,1.07
2019-05-11T13:29:07.998Z,0.80
2019-05-11T13:32:12.507Z,0.80
2019-05-11T13:35:17.919Z,1.00
2019-05-11T13:38:22.605Z,0.80
2019-05-11T13:41:28.706Z,0.90
2019-05-11T13:44:35.420Z,0.90
2019-05-11T13:47:51.294Z,0.93
2019-05-11T13:50:47.915Z,1.03
2019-05-11T13:53:52.742Z,1.07
2019-05-11T13:56:57.715Z,0.97
2019-05-11T14:00:02.876Z,1.00
2019-05-11T14:03:08.844Z,0.90
2019-05-11T14:06:13.344Z,1.03
2019-05-11T14:09:18.436Z,0.60
2019-05-11T14:12:23.138Z,0.93
2019-05-11T14:15:28.186Z,1.27
2019-05-11T14:18:32.820Z,0.70
2019-05-11T14:21:38.477Z,1.20
2019-05-11T14:24:43.006Z,1.03
2019-05-11T14:27:48.638Z,0.97
2019-05-11T14:30:53.105Z,1.17
2019-05-11T14:33:57.926Z,1.10
2019-05-11T14:37:02.678Z,0.90
2019-05-11T14:40:08.968Z,0.80
2019-05-11T14:43:13.720Z,1.33
2019-05-11T14:46:18.335Z,0.80
2019-05-11T14:49:27.650Z,1.10
2019-05-11T14:52:32.567Z,0.90
2019-05-11T14:55:38.253Z,1.00
2019-05-11T14:58:43.280Z,1.20
2019-05-11T15:01:49.425Z,1.10
2019-05-11T15:04:53.812Z,0.97
2019-05-11T15:07:58.621Z,1.00
2019-05-11T15:11:03.077Z,0.87
2019-05-11T15:14:08.247Z,0.80
2019-05-11T15:17:12.908Z,0.93
2019-05-11T15:20:18.460Z,1.00
2019-05-11T15:23:23.167Z,0.63
2019-05-11T15:26:29.474Z,0.90
2019-05-11T15:29:33.838Z,0.80
2019-05-11T15:32:39.847Z,0.80
2019-05-11T15:35:44.744Z,0.90
2019-05-11T15:38:49.589Z,1.10
2019-05-11T15:42:07.299Z,1.00
2019-05-11T15:45:00.313Z,1.20
2019-05-11T15:48:04.749Z,1.07
2019-05-11T15:51:09.116Z,0.87
2019-05-11T15:54:14.211Z,1.00
2019-05-11T15:57:19.567Z,0.90
2019-05-11T16:00:25.448Z,1.10
2019-05-11T16:03:31.072Z,0.87
2019-05-11T16:06:36.327Z,1.20
2019-05-11T16:09:41.380Z,0.93
2019-05-11T16:12:50.109Z,0.70
2019-05-11T16:15:55.181Z,0.90
2019-05-11T16:19:11.015Z,1.10
2019-05-11T16:22:10.077Z,0.67
2019-05-11T16:25:14.434Z,0.97
2019-05-11T16:28:19.545Z,1.27
2019-05-11T16:31:23.862Z,1.27
2019-05-11T16:34:28.656Z,1.07
2019-05-11T16:37:34.127Z,1.10
2019-05-11T16:40:38.790Z,1.30
2019-05-11T16:43:44.292Z,1.10
2019-05-11T16:46:50.904Z,1.37
2019-05-11T16:49:57.985Z,1.27
2019-05-11T16:53:03.654Z,1.13
2019-05-11T16:56:08.551Z,1.23
2019-05-11T16:59:13.387Z,2.00
2019-05-11T17:02:18.808Z,1.60
2019-05-11T17:05:26.970Z,1.93
2019-05-11T17:08:30.951Z,2.03
2019-05-11T17:11:38.087Z,3.10
2019-05-11T17:14:58.692Z,3.37
2019-05-11T17:18:03.621Z,3.93
2019-05-11T17:21:08.767Z,4.50
2019-05-11T17:24:13.561Z,4.40
2019-05-11T17:27:18.081Z,4.40
2019-05-11T17:30:23.181Z,5.53
2019-05-11T17:33:29.780Z,7.33
2019-05-11T17:36:34.945Z,7.10
2019-05-11T17:39:40.541Z,8.77
2019-05-11T17:42:48.052Z,9.33
2019-05-11T17:45:53.585Z,8.40
2019-05-11T17:48:58.717Z,8.00
2019-05-11T17:52:03.261Z,7.20
2019-05-11T17:55:10.210Z,6.23
2019-05-11T17:58:14.692Z,7.10
2019-05-11T18:01:19.409Z,6.40
2019-05-11T18:04:24.029Z,7.30
2019-05-11T18:07:31.020Z,8.43
2019-05-11T18:10:35.657Z,8.67
2019-05-11T18:13:41.191Z,9.47
2019-05-11T18:16:48.106Z,9.20
2019-05-11T18:19:53.748Z,8.87
2019-05-11T18:22:58.421Z,8.40
2019-05-11T18:26:03.154Z,7.47
2019-05-11T18:29:08.690Z,7.03
2019-05-11T18:32:13.183Z,7.37
2019-05-11T18:35:19.492Z,6.90
2019-05-11T18:38:23.954Z,6.97
2019-05-11T18:41:29.680Z,7.07
2019-05-11T18:44:34.631Z,7.87
2019-05-11T18:47:40.543Z,8.47
2019-05-11T18:50:48.461Z,8.73
2019-05-11T18:53:54.449Z,8.50
2019-05-11T18:56:58.979Z,8.43
2019-05-11T19:00:03.336Z,9.53
2019-05-11T19:03:08.991Z,10.43
2019-05-11T19:06:13.965Z,10.27
2019-05-11T19:09:18.471Z,9.97
2019-05-11T19:12:23.140Z,9.77
2019-05-11T19:15:29.311Z,9.67
2019-05-11T19:18:34.087Z,11.20
2019-05-11T19:21:39.665Z,9.90
2019-05-11T19:24:44.666Z,10.37
2019-05-11T19:27:50.782Z,10.67
2019-05-11T19:30:56.311Z,9.83
2019-05-11T19:34:00.802Z,11.43
2019-05-11T19:37:05.233Z,12.17
2019-05-11T19:40:10.757Z,13.57
2019-05-11T19:43:18.469Z,12.87
2019-05-11T19:46:23.189Z,14.00
2019-05-11T19:49:28.296Z,13.03
2019-05-11T19:52:34.679Z,12.67
2019-05-11T19:55:39.074Z,12.13
2019-05-11T19:58:44.411Z,12.30
2019-05-11T20:01:50.102Z,11.90
2019-05-11T20:04:55.613Z,11.90
2019-05-11T20:08:01.002Z,11.77
2019-05-11T20:11:08.234Z,11.77
2019-05-11T20:14:13.664Z,11.47
2019-05-11T20:17:19.821Z,11.30
2019-05-11T20:20:25.025Z,10.97
2019-05-11T20:23:29.904Z,13.10
2019-05-11T20:26:34.353Z,16.00
2019-05-11T20:29:39.320Z,13.40
2019-05-11T20:32:49.082Z,15.73
2019-05-11T20:35:54.675Z,19.17
2019-05-11T20:38:59.737Z,17.57
2019-05-11T20:42:04.421Z,15.27
2019-05-11T20:45:09.201Z,14.17
2019-05-11T20:48:13.667Z,14.43
2019-05-11T20:51:33.080Z,13.37
2019-05-11T20:54:25.543Z,14.93
2019-05-11T20:57:31.057Z,16.30
2019-05-11T21:00:37.946Z,17.37
2019-05-11T21:03:42.998Z,16.77
2019-05-11T21:06:47.653Z,16.30
2019-05-11T21:09:52.205Z,16.33
2019-05-11T21:12:58.209Z,15.43
2019-05-11T21:16:02.614Z,17.03
2019-05-11T21:19:08.355Z,15.93
2019-05-11T21:22:13.806Z,15.00
2019-05-11T21:25:19.510Z,15.20
2019-05-11T21:28:24.263Z,15.27
2019-05-11T21:31:30.089Z,14.60
2019-05-11T21:34:34.482Z,14.50
2019-05-11T21:37:39.284Z,14.90
2019-05-11T21:40:43.755Z,14.00
2019-05-11T21:43:50.280Z,13.73
2019-05-11T21:46:54.806Z,14.67
2019-05-11T21:49:59.368Z,13.50
2019-05-11T21:53:03.696Z,12.17
2019-05-11T21:56:09.382Z,12.10
2019-05-11T21:59:13.915Z,12.50
2019-05-11T22:02:18.656Z,11.80
2019-05-11T22:05:24.373Z,11.27
2019-05-11T22:08:28.748Z,11.13
2019-05-11T22:11:33.629Z,11.00
2019-05-11T22:14:39.312Z,10.33
2019-05-11T22:17:44.095Z,10.23
2019-05-11T22:20:48.643Z,10.70
2019-05-11T22:23:53.257Z,10.70
2019-05-11T22:27:00.212Z,9.90
2019-05-11T22:30:08.354Z,10.47
2019-05-11T22:33:10.650Z,10.43
2019-05-11T22:36:15.443Z,9.90
2019-05-11T22:39:20.975Z,11.17
2019-05-11T22:42:28.083Z,10.83
2019-05-11T22:45:32.916Z,9.23
2019-05-11T22:48:38.362Z,10.97
2019-05-11T22:51:42.849Z,11.23
2019-05-11T22:54:48.544Z,10.90
2019-05-11T22:57:53.931Z,10.73
2019-05-11T23:00:59.804Z,11.03
2019-05-11T23:04:05.309Z,10.93
2019-05-11T23:07:09.644Z,11.13
2019-05-11T23:10:14.034Z,9.93
2019-05-11T23:13:18.782Z,10.83
2019-05-11T23:16:23.562Z,10.43
2019-05-11T23:19:27.999Z,9.93
2019-05-11T23:22:47.714Z,10.17
2019-05-11T23:25:40.532Z,9.30
2019-05-11T23:28:44.989Z,10.57
2019-05-11T23:31:50.056Z,9.50
2019-05-11T23:34:54.638Z,10.17
2019-05-11T23:37:59.160Z,10.03
2019-05-11T23:41:03.598Z,10.13
2019-05-11T23:44:10.463Z,9.67
2019-05-11T23:47:14.873Z,9.60
2019-05-11T23:50:19.562Z,9.50
2019-05-11T23:53:23.828Z,9.83
2019-05-11T23:56:28.271Z,9.70
2019-05-11T23:59:33.483Z,9.30
